sensor_id;sensor_type;location;lat;lon;timestamp;P1;durP1;ratioP1;P2;durP2;ratioP2
2522;SDS011;1272;53.332;9.860;2022-07-10T00:02:26;4.40;;;1.47;;
2522;SDS011;1272;53.332;9.860;2022-07-10T00:04:52;2.97;;;1.20;;
2522;SDS011;1272;53.332;9.860;2022-07-10T00:07:17;1.70;;;0.83;;
2522;SDS011;1272;53.332;9.860;2022-07-10T00:09:43;1.13;;;0.90;;
2522;SDS011;1272;53.332;9.860;2022-07-10T00:12:09;1.53;;;0.90;;
2522;SDS011;1272;53.332;9.860;2022-07-10T00:14:34;2.60;;;0.80;;
2522;SDS011;1272;53.332;9.860;2022-07-10T00:17:00;2.00;;;1.00;;
2522;SDS011;1272;53.332;9.860;2022-07-10T00:19:25;1.73;;;0.80;;
2522;SDS011;1272;53.332;9.860;2022-07-10T00:21:51;3.23;;;0.90;;
2522;SDS011;1272;53.332;9.860;2022-07-10T00:24:17;2.03;;;0.77;;
2522;SDS011;1272;53.332;9.860;2022-07-10T00:26:42;1.03;;;0.90;;
2522;SDS011;1272;53.332;9.860;2022-07-10T00:29:08;0.90;;;0.77;;
2522;SDS011;1272;53.332;9.860;2022-07-10T00:31:34;3.30;;;1.10;;
2522;SDS011;1272;53.332;9.860;2022-07-10T00:33:59;2.30;;;1.20;;
2522;SDS011;1272;53.332;9.860;2022-07-10T00:36:25;0.93;;;0.83;;
2522;SDS011;1272;53.332;9.860;2022-07-10T00:38:51;1.50;;;0.90;;
2522;SDS011;1272;53.332;9.860;2022-07-10T00:41:16;1.47;;;1.10;;
2522;SDS011;1272;53.332;9.860;2022-07-10T00:43:55;1.27;;;0.80;;
2522;SDS011;1272;53.332;9.860;2022-07-10T00:46:25;3.77;;;1.27;;
2522;SDS011;1272;53.332;9.860;2022-07-10T00:48:52;4.50;;;1.90;;
2522;SDS011;1272;53.332;9.860;2022-07-10T00:51:19;2.70;;;1.20;;
2522;SDS011;1272;53.332;9.860;2022-07-10T00:53:47;3.27;;;1.30;;
2522;SDS011;1272;53.332;9.860;2022-07-10T00:56:17;3.90;;;1.30;;
2522;SDS011;1272;53.332;9.860;2022-07-10T00:58:46;2.90;;;1.17;;
2522;SDS011;1272;53.332;9.860;2022-07-10T01:01:13;3.50;;;0.97;;
2522;SDS011;1272;53.332;9.860;2022-07-10T01:03:39;2.40;;;1.40;;
2522;SDS011;1272;53.332;9.860;2022-07-10T01:06:05;2.50;;;1.20;;
2522;SDS011;1272;53.332;9.860;2022-07-10T01:08:31;2.70;;;1.20;;
2522;SDS011;1272;53.332;9.860;2022-07-10T01:10:58;6.87;;;1.20;;
2522;SDS011;1272;53.332;9.860;2022-07-10T01:13:25;2.77;;;1.27;;
2522;SDS011;1272;53.332;9.860;2022-07-10T01:15:51;2.80;;;1.10;;
2522;SDS011;1272;53.332;9.860;2022-07-10T01:18:18;4.53;;;1.00;;
2522;SDS011;1272;53.332;9.860;2022-07-10T01:20:44;7.97;;;1.60;;
2522;SDS011;1272;53.332;9.860;2022-07-10T01:23:09;1.70;;;1.03;;
2522;SDS011;1272;53.332;9.860;2022-07-10T01:25:35;2.17;;;1.40;;
2522;SDS011;1272;53.332;9.860;2022-07-10T01:28:01;5.60;;;1.30;;
2522;SDS011;1272;53.332;9.860;2022-07-10T01:30:27;3.33;;;1.33;;
2522;SDS011;1272;53.332;9.860;2022-07-10T01:32:52;1.37;;;1.03;;
2522;SDS011;1272;53.332;9.860;2022-07-10T01:35:18;6.53;;;1.47;;
2522;SDS011;1272;53.332;9.860;2022-07-10T01:37:44;0.97;;;0.90;;
2522;SDS011;1272;53.332;9.860;2022-07-10T01:40:10;6.20;;;1.10;;
2522;SDS011;1272;53.332;9.860;2022-07-10T01:42:37;2.93;;;1.00;;
2522;SDS011;1272;53.332;9.860;2022-07-10T01:45:09;3.40;;;1.20;;
2522;SDS011;1272;53.332;9.860;2022-07-10T01:47:35;4.53;;;1.00;;
2522;SDS011;1272;53.332;9.860;2022-07-10T01:50:01;4.10;;;1.63;;
2522;SDS011;1272;53.332;9.860;2022-07-10T01:52:28;4.00;;;1.00;;
2522;SDS011;1272;53.332;9.860;2022-07-10T01:54:53;4.33;;;0.90;;
2522;SDS011;1272;53.332;9.860;2022-07-10T01:57:19;3.83;;;1.63;;
2522;SDS011;1272;53.332;9.860;2022-07-10T01:59:45;3.23;;;1.20;;
2522;SDS011;1272;53.332;9.860;2022-07-10T02:02:10;2.70;;;1.30;;
2522;SDS011;1272;53.332;9.860;2022-07-10T02:04:36;2.57;;;1.20;;
2522;SDS011;1272;53.332;9.860;2022-07-10T02:07:11;2.43;;;1.20;;
2522;SDS011;1272;53.332;9.860;2022-07-10T02:09:39;5.60;;;1.23;;
2522;SDS011;1272;53.332;9.860;2022-07-10T02:12:06;1.43;;;1.20;;
2522;SDS011;1272;53.332;9.860;2022-07-10T02:14:32;7.03;;;1.27;;
2522;SDS011;1272;53.332;9.860;2022-07-10T02:16:58;3.90;;;1.10;;
2522;SDS011;1272;53.332;9.860;2022-07-10T02:19:24;3.40;;;0.90;;
2522;SDS011;1272;53.332;9.860;2022-07-10T02:21:49;1.20;;;1.10;;
2522;SDS011;1272;53.332;9.860;2022-07-10T02:24:16;4.60;;;1.40;;
2522;SDS011;1272;53.332;9.860;2022-07-10T02:26:41;1.23;;;1.13;;
2522;SDS011;1272;53.332;9.860;2022-07-10T02:29:07;1.80;;;1.20;;
2522;SDS011;1272;53.332;9.860;2022-07-10T02:31:33;3.40;;;1.33;;
2522;SDS011;1272;53.332;9.860;2022-07-10T02:34:03;4.00;;;1.00;;
2522;SDS011;1272;53.332;9.860;2022-07-10T02:36:29;2.67;;;1.20;;
2522;SDS011;1272;53.332;9.860;2022-07-10T02:38:54;5.03;;;1.63;;
2522;SDS011;1272;53.332;9.860;2022-07-10T02:41:20;4.47;;;1.27;;
2522;SDS011;1272;53.332;9.860;2022-07-10T02:43:46;1.90;;;1.17;;
2522;SDS011;1272;53.332;9.860;2022-07-10T02:46:12;3.63;;;1.23;;
2522;SDS011;1272;53.332;9.860;2022-07-10T02:48:37;3.10;;;1.40;;
2522;SDS011;1272;53.332;9.860;2022-07-10T02:51:03;4.73;;;1.40;;
2522;SDS011;1272;53.332;9.860;2022-07-10T02:53:29;5.50;;;1.27;;
2522;SDS011;1272;53.332;9.860;2022-07-10T02:55:56;3.40;;;2.07;;
2522;SDS011;1272;53.332;9.860;2022-07-10T02:58:22;2.70;;;1.73;;
2522;SDS011;1272;53.332;9.860;2022-07-10T03:00:48;3.80;;;1.37;;
2522;SDS011;1272;53.332;9.860;2022-07-10T03:03:13;2.93;;;1.33;;
2522;SDS011;1272;53.332;9.860;2022-07-10T03:05:41;2.80;;;1.10;;
2522;SDS011;1272;53.332;9.860;2022-07-10T03:08:07;4.20;;;1.63;;
2522;SDS011;1272;53.332;9.860;2022-07-10T03:10:33;2.40;;;1.40;;
2522;SDS011;1272;53.332;9.860;2022-07-10T03:12:58;3.17;;;1.50;;
2522;SDS011;1272;53.332;9.860;2022-07-10T03:15:24;4.13;;;1.27;;
2522;SDS011;1272;53.332;9.860;2022-07-10T03:17:50;5.10;;;1.70;;
2522;SDS011;1272;53.332;9.860;2022-07-10T03:20:15;3.03;;;1.50;;
2522;SDS011;1272;53.332;9.860;2022-07-10T03:22:41;6.43;;;1.40;;
2522;SDS011;1272;53.332;9.860;2022-07-10T03:25:07;5.67;;;2.60;;
2522;SDS011;1272;53.332;9.860;2022-07-10T03:27:33;2.37;;;1.47;;
2522;SDS011;1272;53.332;9.860;2022-07-10T03:29:59;7.57;;;1.57;;
2522;SDS011;1272;53.332;9.860;2022-07-10T03:32:24;2.00;;;1.17;;
2522;SDS011;1272;53.332;9.860;2022-07-10T03:34:50;4.70;;;1.67;;
2522;SDS011;1272;53.332;9.860;2022-07-10T03:37:16;7.27;;;1.63;;
2522;SDS011;1272;53.332;9.860;2022-07-10T03:39:41;3.60;;;1.33;;
2522;SDS011;1272;53.332;9.860;2022-07-10T03:42:07;3.73;;;1.50;;
2522;SDS011;1272;53.332;9.860;2022-07-10T03:44:32;4.33;;;1.83;;
2522;SDS011;1272;53.332;9.860;2022-07-10T03:46:58;3.53;;;1.70;;
2522;SDS011;1272;53.332;9.860;2022-07-10T03:49:25;5.40;;;1.73;;
2522;SDS011;1272;53.332;9.860;2022-07-10T03:51:50;5.87;;;2.10;;
2522;SDS011;1272;53.332;9.860;2022-07-10T03:54:16;6.50;;;1.70;;
2522;SDS011;1272;53.332;9.860;2022-07-10T03:56:42;6.63;;;1.80;;
2522;SDS011;1272;53.332;9.860;2022-07-10T03:59:26;6.70;;;2.20;;
2522;SDS011;1272;53.332;9.860;2022-07-10T04:01:52;3.73;;;1.70;;
2522;SDS011;1272;53.332;9.860;2022-07-10T04:04:18;5.53;;;1.77;;
2522;SDS011;1272;53.332;9.860;2022-07-10T04:06:43;10.00;;;1.80;;
2522;SDS011;1272;53.332;9.860;2022-07-10T04:09:09;8.93;;;2.20;;
2522;SDS011;1272;53.332;9.860;2022-07-10T04:11:35;4.50;;;2.03;;
2522;SDS011;1272;53.332;9.860;2022-07-10T04:14:00;3.77;;;2.10;;
2522;SDS011;1272;53.332;9.860;2022-07-10T04:16:26;4.30;;;1.63;;
2522;SDS011;1272;53.332;9.860;2022-07-10T04:18:52;9.67;;;2.93;;
2522;SDS011;1272;53.332;9.860;2022-07-10T04:21:18;7.87;;;2.63;;
2522;SDS011;1272;53.332;9.860;2022-07-10T04:23:43;5.67;;;2.00;;
2522;SDS011;1272;53.332;9.860;2022-07-10T04:26:09;8.57;;;2.90;;
2522;SDS011;1272;53.332;9.860;2022-07-10T04:28:35;6.50;;;2.60;;
2522;SDS011;1272;53.332;9.860;2022-07-10T04:31:00;7.23;;;2.03;;
2522;SDS011;1272;53.332;9.860;2022-07-10T04:33:26;7.83;;;2.70;;
2522;SDS011;1272;53.332;9.860;2022-07-10T04:35:52;5.47;;;2.10;;
2522;SDS011;1272;53.332;9.860;2022-07-10T04:38:17;7.13;;;2.27;;
2522;SDS011;1272;53.332;9.860;2022-07-10T04:40:43;4.40;;;2.10;;
2522;SDS011;1272;53.332;9.860;2022-07-10T04:43:09;7.90;;;3.10;;
2522;SDS011;1272;53.332;9.860;2022-07-10T04:45:37;10.10;;;2.73;;
2522;SDS011;1272;53.332;9.860;2022-07-10T04:48:06;6.00;;;2.23;;
2522;SDS011;1272;53.332;9.860;2022-07-10T04:50:32;8.90;;;2.47;;
2522;SDS011;1272;53.332;9.860;2022-07-10T04:52:57;4.40;;;2.37;;
2522;SDS011;1272;53.332;9.860;2022-07-10T04:55:23;9.77;;;2.73;;
2522;SDS011;1272;53.332;9.860;2022-07-10T04:57:49;7.13;;;2.40;;
2522;SDS011;1272;53.332;9.860;2022-07-10T05:00:15;9.80;;;2.87;;
2522;SDS011;1272;53.332;9.860;2022-07-10T05:02:40;4.07;;;2.60;;
2522;SDS011;1272;53.332;9.860;2022-07-10T05:05:07;6.23;;;2.10;;
2522;SDS011;1272;53.332;9.860;2022-07-10T05:07:33;5.17;;;3.57;;
2522;SDS011;1272;53.332;9.860;2022-07-10T05:09:58;4.43;;;2.87;;
2522;SDS011;1272;53.332;9.860;2022-07-10T05:12:24;10.37;;;3.57;;
2522;SDS011;1272;53.332;9.860;2022-07-10T05:14:50;10.73;;;2.87;;
2522;SDS011;1272;53.332;9.860;2022-07-10T05:17:16;12.10;;;3.40;;
2522;SDS011;1272;53.332;9.860;2022-07-10T05:19:41;8.07;;;2.30;;
2522;SDS011;1272;53.332;9.860;2022-07-10T05:22:07;14.87;;;3.00;;
2522;SDS011;1272;53.332;9.860;2022-07-10T05:24:34;9.07;;;2.80;;
2522;SDS011;1272;53.332;9.860;2022-07-10T05:27:00;8.00;;;3.00;;
2522;SDS011;1272;53.332;9.860;2022-07-10T05:29:26;6.17;;;2.47;;
2522;SDS011;1272;53.332;9.860;2022-07-10T05:31:51;7.00;;;2.67;;
2522;SDS011;1272;53.332;9.860;2022-07-10T05:34:17;5.97;;;2.30;;
2522;SDS011;1272;53.332;9.860;2022-07-10T05:36:43;5.50;;;2.53;;
2522;SDS011;1272;53.332;9.860;2022-07-10T05:39:08;8.70;;;2.80;;
2522;SDS011;1272;53.332;9.860;2022-07-10T05:41:34;8.50;;;3.13;;
2522;SDS011;1272;53.332;9.860;2022-07-10T05:44:01;6.13;;;2.60;;
2522;SDS011;1272;53.332;9.860;2022-07-10T05:46:27;8.40;;;2.97;;
2522;SDS011;1272;53.332;9.860;2022-07-10T05:48:53;10.07;;;2.80;;
2522;SDS011;1272;53.332;9.860;2022-07-10T05:51:18;8.67;;;2.87;;
2522;SDS011;1272;53.332;9.860;2022-07-10T05:53:44;8.87;;;2.60;;
2522;SDS011;1272;53.332;9.860;2022-07-10T05:56:10;7.80;;;3.00;;
2522;SDS011;1272;53.332;9.860;2022-07-10T05:58:35;10.73;;;3.33;;
2522;SDS011;1272;53.332;9.860;2022-07-10T06:01:01;9.50;;;2.73;;
2522;SDS011;1272;53.332;9.860;2022-07-10T06:03:27;12.23;;;3.37;;
2522;SDS011;1272;53.332;9.860;2022-07-10T06:05:53;8.43;;;2.90;;
2522;SDS011;1272;53.332;9.860;2022-07-10T06:08:19;12.70;;;3.70;;
2522;SDS011;1272;53.332;9.860;2022-07-10T06:10:45;8.73;;;2.33;;
2522;SDS011;1272;53.332;9.860;2022-07-10T06:13:11;9.80;;;2.87;;
2522;SDS011;1272;53.332;9.860;2022-07-10T06:15:37;8.63;;;4.20;;
2522;SDS011;1272;53.332;9.860;2022-07-10T06:18:03;13.87;;;3.00;;
2522;SDS011;1272;53.332;9.860;2022-07-10T06:20:29;6.37;;;3.00;;
2522;SDS011;1272;53.332;9.860;2022-07-10T06:22:56;13.67;;;2.67;;
2522;SDS011;1272;53.332;9.860;2022-07-10T06:25:22;5.60;;;2.60;;
2522;SDS011;1272;53.332;9.860;2022-07-10T06:27:47;6.20;;;2.80;;
2522;SDS011;1272;53.332;9.860;2022-07-10T06:30:13;7.10;;;2.77;;
2522;SDS011;1272;53.332;9.860;2022-07-10T06:32:39;9.77;;;3.57;;
2522;SDS011;1272;53.332;9.860;2022-07-10T06:35:05;11.03;;;3.07;;
2522;SDS011;1272;53.332;9.860;2022-07-10T06:37:32;7.60;;;2.43;;
2522;SDS011;1272;53.332;9.860;2022-07-10T06:39:58;7.67;;;2.73;;
2522;SDS011;1272;53.332;9.860;2022-07-10T06:42:24;6.07;;;2.30;;
2522;SDS011;1272;53.332;9.860;2022-07-10T06:44:50;6.37;;;2.70;;
2522;SDS011;1272;53.332;9.860;2022-07-10T06:47:18;4.90;;;3.00;;
2522;SDS011;1272;53.332;9.860;2022-07-10T06:50:04;7.63;;;2.33;;
2522;SDS011;1272;53.332;9.860;2022-07-10T06:52:31;9.90;;;3.00;;
2522;SDS011;1272;53.332;9.860;2022-07-10T06:54:58;7.90;;;2.10;;
2522;SDS011;1272;53.332;9.860;2022-07-10T06:57:24;5.90;;;2.20;;
2522;SDS011;1272;53.332;9.860;2022-07-10T06:59:50;12.23;;;2.70;;
2522;SDS011;1272;53.332;9.860;2022-07-10T07:02:17;6.90;;;2.40;;
2522;SDS011;1272;53.332;9.860;2022-07-10T07:04:43;6.70;;;3.13;;
2522;SDS011;1272;53.332;9.860;2022-07-10T07:07:10;5.90;;;2.07;;
2522;SDS011;1272;53.332;9.860;2022-07-10T07:09:39;3.50;;;1.60;;
2522;SDS011;1272;53.332;9.860;2022-07-10T07:12:06;9.10;;;1.90;;
2522;SDS011;1272;53.332;9.860;2022-07-10T07:14:32;6.50;;;1.93;;
2522;SDS011;1272;53.332;9.860;2022-07-10T07:16:58;8.60;;;2.53;;
2522;SDS011;1272;53.332;9.860;2022-07-10T07:19:28;9.13;;;2.80;;
2522;SDS011;1272;53.332;9.860;2022-07-10T07:21:58;6.97;;;2.30;;
2522;SDS011;1272;53.332;9.860;2022-07-10T07:24:42;5.97;;;3.60;;
2522;SDS011;1272;53.332;9.860;2022-07-10T07:27:08;5.47;;;2.07;;
2522;SDS011;1272;53.332;9.860;2022-07-10T07:29:34;10.20;;;3.23;;
2522;SDS011;1272;53.332;9.860;2022-07-10T07:32:00;6.37;;;2.63;;
2522;SDS011;1272;53.332;9.860;2022-07-10T07:34:25;8.00;;;2.63;;
2522;SDS011;1272;53.332;9.860;2022-07-10T07:36:51;6.87;;;2.10;;
2522;SDS011;1272;53.332;9.860;2022-07-10T07:39:17;6.20;;;2.47;;
2522;SDS011;1272;53.332;9.860;2022-07-10T07:41:42;6.13;;;2.30;;
2522;SDS011;1272;53.332;9.860;2022-07-10T07:44:08;6.63;;;2.77;;
2522;SDS011;1272;53.332;9.860;2022-07-10T07:46:34;10.50;;;2.30;;
2522;SDS011;1272;53.332;9.860;2022-07-10T07:49:00;4.03;;;1.70;;
2522;SDS011;1272;53.332;9.860;2022-07-10T07:51:25;7.80;;;2.80;;
2522;SDS011;1272;53.332;9.860;2022-07-10T07:53:51;5.90;;;1.83;;
2522;SDS011;1272;53.332;9.860;2022-07-10T07:56:17;9.67;;;1.97;;
2522;SDS011;1272;53.332;9.860;2022-07-10T07:58:42;6.70;;;2.20;;
2522;SDS011;1272;53.332;9.860;2022-07-10T08:01:08;8.77;;;2.07;;
2522;SDS011;1272;53.332;9.860;2022-07-10T08:03:34;7.73;;;2.17;;
2522;SDS011;1272;53.332;9.860;2022-07-10T08:06:00;9.17;;;2.10;;
2522;SDS011;1272;53.332;9.860;2022-07-10T08:08:26;5.70;;;1.80;;
2522;SDS011;1272;53.332;9.860;2022-07-10T08:10:51;12.40;;;2.53;;
2522;SDS011;1272;53.332;9.860;2022-07-10T08:13:17;6.37;;;1.60;;
2522;SDS011;1272;53.332;9.860;2022-07-10T08:15:43;7.43;;;2.20;;
2522;SDS011;1272;53.332;9.860;2022-07-10T08:18:09;5.30;;;3.67;;
2522;SDS011;1272;53.332;9.860;2022-07-10T08:20:34;8.40;;;2.20;;
2522;SDS011;1272;53.332;9.860;2022-07-10T08:23:00;12.47;;;3.10;;
2522;SDS011;1272;53.332;9.860;2022-07-10T08:25:26;10.40;;;2.10;;
2522;SDS011;1272;53.332;9.860;2022-07-10T08:27:56;5.80;;;1.50;;
2522;SDS011;1272;53.332;9.860;2022-07-10T08:30:25;5.87;;;1.97;;
2522;SDS011;1272;53.332;9.860;2022-07-10T08:32:50;8.17;;;2.27;;
2522;SDS011;1272;53.332;9.860;2022-07-10T08:35:16;8.23;;;2.03;;
2522;SDS011;1272;53.332;9.860;2022-07-10T08:37:43;5.23;;;1.67;;
2522;SDS011;1272;53.332;9.860;2022-07-10T08:40:11;5.77;;;1.90;;
2522;SDS011;1272;53.332;9.860;2022-07-10T08:42:38;7.97;;;2.20;;
2522;SDS011;1272;53.332;9.860;2022-07-10T08:45:06;7.73;;;1.80;;
2522;SDS011;1272;53.332;9.860;2022-07-10T08:47:35;6.10;;;2.00;;
2522;SDS011;1272;53.332;9.860;2022-07-10T08:50:01;5.47;;;1.83;;
2522;SDS011;1272;53.332;9.860;2022-07-10T08:52:37;5.43;;;2.10;;
2522;SDS011;1272;53.332;9.860;2022-07-10T08:55:11;4.03;;;1.67;;
2522;SDS011;1272;53.332;9.860;2022-07-10T08:57:38;6.47;;;2.27;;
2522;SDS011;1272;53.332;9.860;2022-07-10T09:00:06;5.67;;;1.93;;
2522;SDS011;1272;53.332;9.860;2022-07-10T09:02:32;5.03;;;1.50;;
2522;SDS011;1272;53.332;9.860;2022-07-10T09:04:57;6.87;;;1.73;;
2522;SDS011;1272;53.332;9.860;2022-07-10T09:07:24;7.50;;;1.97;;
2522;SDS011;1272;53.332;9.860;2022-07-10T09:09:53;5.10;;;1.83;;
2522;SDS011;1272;53.332;9.860;2022-07-10T09:12:20;10.33;;;1.97;;
2522;SDS011;1272;53.332;9.860;2022-07-10T09:14:47;6.27;;;2.00;;
2522;SDS011;1272;53.332;9.860;2022-07-10T09:17:13;6.47;;;1.90;;
2522;SDS011;1272;53.332;9.860;2022-07-10T09:19:39;6.77;;;1.67;;
2522;SDS011;1272;53.332;9.860;2022-07-10T09:22:06;5.47;;;1.73;;
2522;SDS011;1272;53.332;9.860;2022-07-10T09:24:38;3.97;;;1.63;;
2522;SDS011;1272;53.332;9.860;2022-07-10T09:27:05;7.30;;;2.07;;
2522;SDS011;1272;53.332;9.860;2022-07-10T09:29:31;4.03;;;1.53;;
2522;SDS011;1272;53.332;9.860;2022-07-10T09:32:08;5.60;;;2.20;;
2522;SDS011;1272;53.332;9.860;2022-07-10T09:34:35;4.00;;;2.03;;
2522;SDS011;1272;53.332;9.860;2022-07-10T09:39:57;5.50;;;2.00;;
2522;SDS011;1272;53.332;9.860;2022-07-10T09:47:35;5.93;;;2.00;;
2522;SDS011;1272;53.332;9.860;2022-07-10T09:50:01;5.47;;;2.00;;
2522;SDS011;1272;53.332;9.860;2022-07-10T09:52:28;5.90;;;2.07;;
2522;SDS011;1272;53.332;9.860;2022-07-10T09:54:55;6.60;;;2.20;;
2522;SDS011;1272;53.332;9.860;2022-07-10T09:57:21;8.47;;;2.23;;
2522;SDS011;1272;53.332;9.860;2022-07-10T09:59:51;3.70;;;1.40;;
2522;SDS011;1272;53.332;9.860;2022-07-10T10:02:18;4.10;;;2.10;;
2522;SDS011;1272;53.332;9.860;2022-07-10T10:04:45;8.43;;;2.03;;
2522;SDS011;1272;53.332;9.860;2022-07-10T10:07:13;4.50;;;1.93;;
2522;SDS011;1272;53.332;9.860;2022-07-10T10:09:43;4.43;;;1.70;;
2522;SDS011;1272;53.332;9.860;2022-07-10T10:12:16;3.23;;;1.40;;
2522;SDS011;1272;53.332;9.860;2022-07-10T10:14:46;2.80;;;1.70;;
2522;SDS011;1272;53.332;9.860;2022-07-10T10:17:13;8.00;;;1.60;;
2522;SDS011;1272;53.332;9.860;2022-07-10T10:19:42;9.30;;;1.77;;
2522;SDS011;1272;53.332;9.860;2022-07-10T10:22:29;7.10;;;2.30;;
2522;SDS011;1272;53.332;9.860;2022-07-10T10:24:56;4.00;;;1.63;;
2522;SDS011;1272;53.332;9.860;2022-07-10T10:27:24;4.27;;;1.70;;
2522;SDS011;1272;53.332;9.860;2022-07-10T10:29:50;5.40;;;2.43;;
2522;SDS011;1272;53.332;9.860;2022-07-10T10:32:16;4.13;;;1.90;;
2522;SDS011;1272;53.332;9.860;2022-07-10T10:34:43;3.20;;;1.57;;
2522;SDS011;1272;53.332;9.860;2022-07-10T10:40:02;6.70;;;1.60;;
2522;SDS011;1272;53.332;9.860;2022-07-10T10:42:41;5.83;;;1.60;;
2522;SDS011;1272;53.332;9.860;2022-07-10T10:50:46;6.37;;;2.10;;
2522;SDS011;1272;53.332;9.860;2022-07-10T10:53:20;7.50;;;1.37;;
2522;SDS011;1272;53.332;9.860;2022-07-10T10:58:43;6.27;;;1.93;;
2522;SDS011;1272;53.332;9.860;2022-07-10T11:09:22;4.77;;;1.67;;
2522;SDS011;1272;53.332;9.860;2022-07-10T11:12:03;4.50;;;1.73;;
2522;SDS011;1272;53.332;9.860;2022-07-10T11:14:38;10.13;;;2.00;;
2522;SDS011;1272;53.332;9.860;2022-07-10T11:17:05;4.60;;;2.17;;
2522;SDS011;1272;53.332;9.860;2022-07-10T11:19:31;7.53;;;2.13;;
2522;SDS011;1272;53.332;9.860;2022-07-10T11:24:51;6.23;;;2.13;;
2522;SDS011;1272;53.332;9.860;2022-07-10T11:27:51;6.57;;;1.90;;
2522;SDS011;1272;53.332;9.860;2022-07-10T11:30:50;9.30;;;2.10;;
2522;SDS011;1272;53.332;9.860;2022-07-10T11:33:18;5.07;;;2.27;;
2522;SDS011;1272;53.332;9.860;2022-07-10T11:35:46;6.20;;;2.17;;
2522;SDS011;1272;53.332;9.860;2022-07-10T11:38:18;9.30;;;2.87;;
2522;SDS011;1272;53.332;9.860;2022-07-10T11:40:48;5.33;;;2.03;;
2522;SDS011;1272;53.332;9.860;2022-07-10T11:43:14;6.30;;;2.33;;
2522;SDS011;1272;53.332;9.860;2022-07-10T11:45:42;5.13;;;2.60;;
2522;SDS011;1272;53.332;9.860;2022-07-10T11:48:16;6.40;;;2.37;;
2522;SDS011;1272;53.332;9.860;2022-07-10T11:50:46;7.00;;;1.57;;
2522;SDS011;1272;53.332;9.860;2022-07-10T11:53:12;5.27;;;1.80;;
2522;SDS011;1272;53.332;9.860;2022-07-10T11:55:38;5.90;;;2.30;;
2522;SDS011;1272;53.332;9.860;2022-07-10T11:58:15;6.97;;;2.97;;
2522;SDS011;1272;53.332;9.860;2022-07-10T12:00:42;4.80;;;1.80;;
2522;SDS011;1272;53.332;9.860;2022-07-10T12:03:20;5.57;;;1.50;;
2522;SDS011;1272;53.332;9.860;2022-07-10T12:05:46;3.43;;;1.50;;
2522;SDS011;1272;53.332;9.860;2022-07-10T12:08:13;6.20;;;1.73;;
2522;SDS011;1272;53.332;9.860;2022-07-10T12:10:39;5.90;;;2.57;;
2522;SDS011;1272;53.332;9.860;2022-07-10T12:13:14;6.90;;;2.20;;
2522;SDS011;1272;53.332;9.860;2022-07-10T12:15:44;5.33;;;1.80;;
2522;SDS011;1272;53.332;9.860;2022-07-10T12:18:20;3.93;;;1.47;;
2522;SDS011;1272;53.332;9.860;2022-07-10T12:20:48;9.60;;;1.90;;
2522;SDS011;1272;53.332;9.860;2022-07-10T12:23:15;3.77;;;1.70;;
2522;SDS011;1272;53.332;9.860;2022-07-10T12:25:45;3.53;;;1.80;;
2522;SDS011;1272;53.332;9.860;2022-07-10T12:28:15;2.63;;;1.30;;
2522;SDS011;1272;53.332;9.860;2022-07-10T12:30:42;6.57;;;1.80;;
2522;SDS011;1272;53.332;9.860;2022-07-10T12:33:15;5.03;;;1.60;;
2522;SDS011;1272;53.332;9.860;2022-07-10T12:38:25;4.10;;;1.50;;
2522;SDS011;1272;53.332;9.860;2022-07-10T12:41:10;5.83;;;1.57;;
2522;SDS011;1272;53.332;9.860;2022-07-10T12:43:37;3.87;;;1.83;;
2522;SDS011;1272;53.332;9.860;2022-07-10T12:46:14;3.20;;;1.97;;
2522;SDS011;1272;53.332;9.860;2022-07-10T12:51:31;4.27;;;2.00;;
2522;SDS011;1272;53.332;9.860;2022-07-10T12:54:08;4.23;;;1.97;;
2522;SDS011;1272;53.332;9.860;2022-07-10T12:56:37;5.80;;;2.10;;
2522;SDS011;1272;53.332;9.860;2022-07-10T12:59:12;2.40;;;1.33;;
2522;SDS011;1272;53.332;9.860;2022-07-10T13:01:42;8.30;;;2.03;;
2522;SDS011;1272;53.332;9.860;2022-07-10T13:04:09;6.20;;;2.30;;
2522;SDS011;1272;53.332;9.860;2022-07-10T13:06:36;4.20;;;1.90;;
2522;SDS011;1272;53.332;9.860;2022-07-10T13:09:03;7.43;;;2.27;;
2522;SDS011;1272;53.332;9.860;2022-07-10T13:11:45;5.27;;;1.70;;
2522;SDS011;1272;53.332;9.860;2022-07-10T13:14:11;4.83;;;1.63;;
2522;SDS011;1272;53.332;9.860;2022-07-10T13:16:37;3.40;;;1.40;;
2522;SDS011;1272;53.332;9.860;2022-07-10T13:19:03;3.27;;;1.37;;
2522;SDS011;1272;53.332;9.860;2022-07-10T13:21:28;3.80;;;1.63;;
2522;SDS011;1272;53.332;9.860;2022-07-10T13:23:54;4.30;;;1.80;;
2522;SDS011;1272;53.332;9.860;2022-07-10T13:26:20;7.10;;;2.20;;
2522;SDS011;1272;53.332;9.860;2022-07-10T13:28:45;7.30;;;1.87;;
2522;SDS011;1272;53.332;9.860;2022-07-10T13:31:11;4.63;;;1.73;;
2522;SDS011;1272;53.332;9.860;2022-07-10T13:33:37;6.57;;;1.90;;
2522;SDS011;1272;53.332;9.860;2022-07-10T13:36:03;5.57;;;1.80;;
2522;SDS011;1272;53.332;9.860;2022-07-10T13:38:29;5.07;;;1.83;;
2522;SDS011;1272;53.332;9.860;2022-07-10T13:40:56;3.50;;;1.73;;
2522;SDS011;1272;53.332;9.860;2022-07-10T13:43:22;4.73;;;1.70;;
2522;SDS011;1272;53.332;9.860;2022-07-10T13:45:53;4.93;;;1.27;;
2522;SDS011;1272;53.332;9.860;2022-07-10T13:48:22;5.33;;;1.60;;
2522;SDS011;1272;53.332;9.860;2022-07-10T13:50:49;5.83;;;2.07;;
2522;SDS011;1272;53.332;9.860;2022-07-10T13:53:15;5.00;;;1.80;;
2522;SDS011;1272;53.332;9.860;2022-07-10T13:55:41;3.77;;;1.83;;
2522;SDS011;1272;53.332;9.860;2022-07-10T13:58:08;4.60;;;1.57;;
2522;SDS011;1272;53.332;9.860;2022-07-10T14:00:34;2.33;;;1.40;;
2522;SDS011;1272;53.332;9.860;2022-07-10T14:03:00;5.70;;;1.73;;
2522;SDS011;1272;53.332;9.860;2022-07-10T14:05:27;4.30;;;1.73;;
2522;SDS011;1272;53.332;9.860;2022-07-10T14:07:53;4.30;;;1.87;;
2522;SDS011;1272;53.332;9.860;2022-07-10T14:10:19;2.83;;;1.40;;
2522;SDS011;1272;53.332;9.860;2022-07-10T14:12:44;5.87;;;1.53;;
2522;SDS011;1272;53.332;9.860;2022-07-10T14:15:10;10.00;;;1.80;;
2522;SDS011;1272;53.332;9.860;2022-07-10T14:17:36;4.47;;;1.67;;
2522;SDS011;1272;53.332;9.860;2022-07-10T14:20:02;4.40;;;1.60;;
2522;SDS011;1272;53.332;9.860;2022-07-10T14:22:28;3.00;;;1.47;;
2522;SDS011;1272;53.332;9.860;2022-07-10T14:24:55;3.27;;;1.40;;
2522;SDS011;1272;53.332;9.860;2022-07-10T14:27:22;4.73;;;1.70;;
2522;SDS011;1272;53.332;9.860;2022-07-10T14:29:56;3.13;;;1.93;;
2522;SDS011;1272;53.332;9.860;2022-07-10T14:32:23;3.40;;;1.73;;
2522;SDS011;1272;53.332;9.860;2022-07-10T14:34:49;6.00;;;2.00;;
2522;SDS011;1272;53.332;9.860;2022-07-10T14:37:14;3.80;;;1.40;;
2522;SDS011;1272;53.332;9.860;2022-07-10T14:39:40;3.80;;;1.60;;
2522;SDS011;1272;53.332;9.860;2022-07-10T14:42:06;4.60;;;2.37;;
2522;SDS011;1272;53.332;9.860;2022-07-10T14:44:35;4.10;;;1.57;;
2522;SDS011;1272;53.332;9.860;2022-07-10T14:47:01;5.13;;;1.90;;
2522;SDS011;1272;53.332;9.860;2022-07-10T14:49:27;2.57;;;1.53;;
2522;SDS011;1272;53.332;9.860;2022-07-10T14:51:52;4.93;;;1.43;;
2522;SDS011;1272;53.332;9.860;2022-07-10T14:54:19;4.57;;;1.73;;
2522;SDS011;1272;53.332;9.860;2022-07-10T14:56:45;3.50;;;1.90;;
2522;SDS011;1272;53.332;9.860;2022-07-10T14:59:11;3.30;;;1.63;;
2522;SDS011;1272;53.332;9.860;2022-07-10T15:01:37;4.43;;;1.70;;
2522;SDS011;1272;53.332;9.860;2022-07-10T15:04:03;5.30;;;1.40;;
2522;SDS011;1272;53.332;9.860;2022-07-10T15:06:29;6.80;;;1.40;;
2522;SDS011;1272;53.332;9.860;2022-07-10T15:08:54;3.23;;;1.60;;
2522;SDS011;1272;53.332;9.860;2022-07-10T15:11:20;3.10;;;1.47;;
2522;SDS011;1272;53.332;9.860;2022-07-10T15:13:48;5.70;;;1.83;;
2522;SDS011;1272;53.332;9.860;2022-07-10T15:16:16;5.37;;;2.13;;
2522;SDS011;1272;53.332;9.860;2022-07-10T15:18:42;2.30;;;1.47;;
2522;SDS011;1272;53.332;9.860;2022-07-10T15:21:08;3.73;;;1.67;;
2522;SDS011;1272;53.332;9.860;2022-07-10T15:23:34;2.50;;;1.33;;
2522;SDS011;1272;53.332;9.860;2022-07-10T15:25:59;4.40;;;1.80;;
2522;SDS011;1272;53.332;9.860;2022-07-10T15:28:26;5.67;;;2.13;;
2522;SDS011;1272;53.332;9.860;2022-07-10T15:30:51;6.40;;;1.43;;
2522;SDS011;1272;53.332;9.860;2022-07-10T15:33:17;3.07;;;1.50;;
2522;SDS011;1272;53.332;9.860;2022-07-10T15:35:44;8.63;;;1.90;;
2522;SDS011;1272;53.332;9.860;2022-07-10T15:38:09;4.33;;;1.60;;
2522;SDS011;1272;53.332;9.860;2022-07-10T15:40:35;4.27;;;1.40;;
2522;SDS011;1272;53.332;9.860;2022-07-10T15:43:01;8.40;;;1.40;;
2522;SDS011;1272;53.332;9.860;2022-07-10T15:45:26;5.83;;;1.73;;
2522;SDS011;1272;53.332;9.860;2022-07-10T15:47:53;2.20;;;1.27;;
2522;SDS011;1272;53.332;9.860;2022-07-10T15:50:19;3.20;;;1.60;;
2522;SDS011;1272;53.332;9.860;2022-07-10T15:52:45;4.17;;;1.73;;